createdAt,value
2018-09-25T00:00:54.887Z,41.30
2018-09-25T00:01:54.775Z,38.60
2018-09-25T00:02:54.916Z,37.30
2018-09-25T00:03:55.077Z,39.10
2018-09-25T00:04:54.838Z,37.30
2018-09-25T00:05:54.838Z,37.10
2018-09-25T00:06:54.847Z,36.00
2018-09-25T00:07:54.875Z,38.20
2018-09-25T00:08:55.030Z,37.00
2018-09-25T00:09:54.895Z,37.30
2018-09-25T00:10:54.944Z,37.40
2018-09-25T00:11:54.916Z,35.50
2018-09-25T00:12:54.930Z,37.40
2018-09-25T00:13:55.221Z,38.00
2018-09-25T00:14:55.080Z,36.50
2018-09-25T00:15:54.966Z,36.60
2018-09-25T00:16:55.109Z,36.40
2018-09-25T00:17:55.000Z,36.10
2018-09-25T00:18:55.193Z,35.00
2018-09-25T00:19:55.029Z,36.10
2018-09-25T00:20:55.037Z,37.10
2018-09-25T00:21:55.332Z,35.80
2018-09-25T00:22:55.199Z,35.40
2018-09-25T00:23:55.209Z,35.00
2018-09-25T00:24:55.095Z,33.80
2018-09-25T00:25:55.109Z,35.70
2018-09-25T00:26:55.449Z,36.30
2018-09-25T00:27:55.267Z,34.70
2018-09-25T00:28:55.277Z,33.80
2018-09-25T00:29:55.160Z,34.00
2018-09-25T00:30:55.189Z,34.10
2018-09-25T00:32:55.216Z,34.00
2018-09-25T00:33:55.225Z,34.70
2018-09-25T00:34:55.251Z,33.50
2018-09-25T00:35:55.294Z,34.00
2018-09-25T00:36:55.468Z,33.80
2018-09-25T00:37:55.280Z,33.00
2018-09-25T00:38:55.422Z,35.20
2018-09-25T00:39:55.432Z,34.10
2018-09-25T00:40:55.450Z,34.90
2018-09-25T00:41:55.500Z,35.40
2018-09-25T00:42:55.479Z,36.40
2018-09-25T00:43:55.488Z,36.10
2018-09-25T00:44:55.381Z,34.60
2018-09-25T00:45:55.426Z,35.70
2018-09-25T00:46:55.567Z,35.70
2018-09-25T00:47:55.423Z,35.00
2018-09-25T00:48:55.559Z,35.80
2018-09-25T00:49:55.603Z,35.90
2018-09-25T00:50:55.465Z,37.70
2018-09-25T00:51:55.475Z,37.60
2018-09-25T00:52:55.618Z,37.20
2018-09-25T00:53:55.511Z,36.00
2018-09-25T00:54:55.516Z,37.40
2018-09-25T00:55:55.637Z,36.50
2018-09-25T00:56:55.707Z,37.40
2018-09-25T00:57:55.559Z,37.30
2018-09-25T00:58:55.612Z,38.50
2018-09-25T00:59:55.596Z,38.80
2018-09-25T01:00:55.760Z,39.80
2018-09-25T01:01:55.744Z,38.50
2018-09-25T01:02:55.633Z,39.80
2018-09-25T01:03:55.769Z,39.00
2018-09-25T01:04:55.654Z,38.70
2018-09-25T01:05:55.828Z,38.30
2018-09-25T01:06:55.814Z,38.30
2018-09-25T01:07:55.825Z,39.30
2018-09-25T01:08:55.760Z,40.50
2018-09-25T01:09:55.725Z,39.90
2018-09-25T01:10:55.897Z,39.10
2018-09-25T01:11:55.797Z,39.70
2018-09-25T01:12:55.780Z,39.50
2018-09-25T01:13:55.911Z,41.30
2018-09-25T01:14:55.833Z,40.30
2018-09-25T01:15:55.965Z,40.40
2018-09-25T01:16:55.831Z,41.30
2018-09-25T01:17:55.843Z,40.20
2018-09-25T01:18:55.981Z,41.00
2018-09-25T01:19:55.876Z,39.90
2018-09-25T01:20:56.156Z,41.40
2018-09-25T01:21:55.909Z,42.50
2018-09-25T01:22:56.034Z,42.50
2018-09-25T01:23:55.934Z,41.40
2018-09-25T01:24:55.936Z,42.40
2018-09-25T01:25:56.132Z,42.10
2018-09-25T01:26:55.981Z,44.20
2018-09-25T01:27:55.997Z,42.20
2018-09-25T01:28:56.012Z,44.70
2018-09-25T01:29:56.024Z,41.40
2018-09-25T01:30:56.214Z,41.90
2018-09-25T01:31:56.039Z,41.60
2018-09-25T01:32:56.175Z,40.30
2018-09-25T01:33:56.078Z,39.00
2018-09-25T01:34:56.081Z,40.00
2018-09-25T01:35:56.245Z,40.20
2018-09-25T01:36:56.109Z,40.10
2018-09-25T01:37:56.119Z,40.00
2018-09-25T01:38:56.188Z,41.40
2018-09-25T01:39:56.154Z,39.70
2018-09-25T01:40:56.308Z,38.40
2018-09-25T01:41:56.176Z,37.60
2018-09-25T01:42:56.321Z,37.80
2018-09-25T01:43:56.214Z,38.00
2018-09-25T01:44:56.347Z,37.30
2018-09-25T01:45:56.291Z,38.50
2018-09-25T01:46:56.246Z,38.20
2018-09-25T01:47:56.308Z,38.30
2018-09-25T01:48:56.286Z,39.90
2018-09-25T01:49:56.345Z,39.40
2018-09-25T01:50:56.309Z,39.60
2018-09-25T01:51:56.322Z,39.10
2018-09-25T01:52:56.464Z,39.50
2018-09-25T01:53:56.357Z,40.10
2018-09-25T01:54:56.509Z,40.50
2018-09-25T01:55:56.502Z,40.70
2018-09-25T01:56:56.403Z,38.60
2018-09-25T01:57:56.403Z,38.70
2018-09-25T01:58:56.413Z,39.00
2018-09-25T01:59:56.428Z,38.50
2018-09-25T02:00:56.450Z,39.10
2018-09-25T02:01:56.589Z,36.40
2018-09-25T02:02:56.599Z,37.30
2018-09-25T02:03:56.616Z,36.90
2018-09-25T02:04:56.661Z,37.90
2018-09-25T02:05:56.531Z,38.40
2018-09-25T02:06:56.544Z,35.80
2018-09-25T02:07:56.556Z,39.00
2018-09-25T02:08:56.687Z,39.90
2018-09-25T02:09:56.720Z,38.20
2018-09-25T02:10:56.719Z,38.80
2018-09-25T02:11:56.604Z,37.00
2018-09-25T02:12:56.744Z,36.40
2018-09-25T02:13:56.632Z,37.30
2018-09-25T02:14:56.924Z,35.80
2018-09-25T02:15:56.789Z,34.80
2018-09-25T02:16:56.679Z,33.90
2018-09-25T02:17:56.688Z,34.40
2018-09-25T02:18:56.763Z,34.00
2018-09-25T02:19:56.779Z,36.60
2018-09-25T02:20:56.858Z,37.00
2018-09-25T02:21:56.765Z,36.70
2018-09-25T02:22:56.890Z,36.80
2018-09-25T02:23:56.784Z,37.20
2018-09-25T02:24:56.912Z,37.60
2018-09-25T02:25:56.932Z,37.90
2018-09-25T02:26:56.866Z,38.50
2018-09-25T02:27:56.960Z,38.70
2018-09-25T02:28:56.968Z,38.90
2018-09-25T02:29:56.866Z,39.80
2018-09-25T02:30:56.913Z,40.60
2018-09-25T02:31:57.037Z,39.70
2018-09-25T02:32:56.903Z,40.20
2018-09-25T02:33:56.948Z,41.00
2018-09-25T02:34:56.928Z,39.90
2018-09-25T02:35:57.072Z,40.50
2018-09-25T02:36:57.081Z,39.80
2018-09-25T02:37:57.105Z,41.40
2018-09-25T02:38:56.982Z,40.20
2018-09-25T02:39:57.280Z,40.30
2018-09-25T02:40:57.013Z,40.60
2018-09-25T02:41:57.152Z,40.20
2018-09-25T02:42:57.172Z,38.70
2018-09-25T02:43:57.074Z,39.40
2018-09-25T02:44:57.234Z,41.10
2018-09-25T02:45:57.121Z,39.90
2018-09-25T02:46:57.109Z,42.90
2018-09-25T02:47:57.240Z,41.40
2018-09-25T02:48:57.134Z,41.90
2018-09-25T02:49:57.143Z,43.60
2018-09-25T02:50:57.157Z,45.20
2018-09-25T02:51:57.295Z,47.30
2018-09-25T02:52:57.356Z,45.10
2018-09-25T02:53:57.321Z,46.50
2018-09-25T02:54:57.340Z,47.50
2018-09-25T02:55:57.218Z,47.20
2018-09-25T02:56:57.242Z,46.20
2018-09-25T02:57:57.379Z,48.30
2018-09-25T02:58:57.541Z,47.60
2018-09-25T02:59:57.411Z,50.20
2018-09-25T03:00:57.430Z,50.00
2018-09-25T03:01:57.440Z,51.40
2018-09-25T03:02:57.323Z,49.60
2018-09-25T03:03:57.511Z,51.90
2018-09-25T03:04:57.479Z,50.70
2018-09-25T03:05:57.494Z,51.00
2018-09-25T03:06:57.376Z,51.00
2018-09-25T03:07:57.396Z,51.00
2018-09-25T03:08:57.606Z,52.80
2018-09-25T03:09:57.428Z,53.90
2018-09-25T03:10:57.481Z,52.70
2018-09-25T03:11:57.465Z,52.60
2018-09-25T03:12:57.468Z,51.90
2018-09-25T03:13:57.601Z,52.60
2018-09-25T03:14:57.490Z,51.90
2018-09-25T03:15:57.536Z,53.90
2018-09-25T03:16:57.694Z,52.90
2018-09-25T03:17:57.532Z,52.00
2018-09-25T03:18:57.667Z,52.80
2018-09-25T03:19:57.569Z,52.90
2018-09-25T03:20:57.584Z,52.70
2018-09-25T03:21:57.591Z,53.30
2018-09-25T03:22:57.640Z,53.20
2018-09-25T03:23:57.684Z,52.90
2018-09-25T03:24:57.639Z,51.70
2018-09-25T03:25:57.647Z,51.90
2018-09-25T03:26:57.815Z,53.90
2018-09-25T03:27:57.691Z,52.60
2018-09-25T03:28:57.807Z,52.70
2018-09-25T03:29:57.700Z,50.80
2018-09-25T03:30:57.831Z,50.90
2018-09-25T03:31:58.001Z,50.00
2018-09-25T03:32:57.860Z,50.20
2018-09-25T03:33:57.749Z,51.70
2018-09-25T03:34:57.765Z,49.60
2018-09-25T03:35:57.903Z,49.10
2018-09-25T03:36:58.016Z,47.40
2018-09-25T03:37:57.805Z,47.40
2018-09-25T03:38:57.941Z,48.90
2018-09-25T03:39:57.835Z,49.30
2018-09-25T03:40:57.972Z,47.70
2018-09-25T03:41:57.982Z,49.20
2018-09-25T03:42:57.997Z,46.10
2018-09-25T03:43:58.015Z,45.00
2018-09-25T03:44:58.027Z,46.00
2018-09-25T03:45:57.926Z,43.90
2018-09-25T03:46:57.919Z,45.50
2018-09-25T03:47:58.068Z,43.40
2018-09-25T03:48:57.948Z,44.40
2018-09-25T03:49:57.964Z,41.50
2018-09-25T03:50:58.107Z,42.10
2018-09-25T03:51:58.005Z,43.60
2018-09-25T03:52:58.288Z,44.00
2018-09-25T03:53:58.022Z,43.60
2018-09-25T03:54:58.166Z,44.20
2018-09-25T03:55:58.176Z,43.10
2018-09-25T03:56:58.082Z,42.70
2018-09-25T03:57:58.127Z,44.10
2018-09-25T03:58:58.134Z,44.40
2018-09-25T03:59:58.121Z,42.50
2018-09-25T04:00:58.154Z,44.10
2018-09-25T04:01:58.263Z,45.30
2018-09-25T04:02:58.431Z,44.30
2018-09-25T04:03:58.154Z,44.70
2018-09-25T04:04:58.196Z,43.80
2018-09-25T04:05:58.224Z,45.80
2018-09-25T04:06:58.204Z,44.40
2018-09-25T04:07:58.353Z,44.30
2018-09-25T04:08:58.363Z,44.50
2018-09-25T04:09:58.374Z,44.00
2018-09-25T04:10:58.336Z,43.90
2018-09-25T04:11:58.290Z,43.20
2018-09-25T04:12:58.292Z,43.40
2018-09-25T04:13:58.310Z,41.60
2018-09-25T04:14:58.501Z,42.40
2018-09-25T04:15:58.459Z,42.70
2018-09-25T04:16:58.349Z,42.50
2018-09-25T04:17:58.359Z,40.30
2018-09-25T04:18:58.504Z,40.50
2018-09-25T04:19:58.441Z,40.90
2018-09-25T04:20:58.531Z,40.30
2018-09-25T04:21:58.425Z,40.50
2018-09-25T04:22:58.629Z,41.40
2018-09-25T04:23:58.461Z,40.10
2018-09-25T04:24:58.548Z,40.70
2018-09-25T04:25:58.477Z,39.20
2018-09-25T04:26:58.499Z,38.40
2018-09-25T04:27:58.519Z,37.90
2018-09-25T04:28:58.642Z,36.40
2018-09-25T04:29:58.711Z,36.80
2018-09-25T04:30:58.559Z,35.40
2018-09-25T04:31:58.691Z,34.00
2018-09-25T04:32:58.708Z,33.50
2018-09-25T04:33:58.603Z,33.60
2018-09-25T04:34:58.752Z,32.10
2018-09-25T04:35:58.752Z,32.70
2018-09-25T04:36:58.794Z,32.80
2018-09-25T04:37:58.653Z,32.00
2018-09-25T04:38:58.788Z,31.70
2018-09-25T04:39:58.681Z,29.20
2018-09-25T04:40:58.742Z,29.80
2018-09-25T04:41:58.738Z,29.40
2018-09-25T04:42:58.882Z,29.70
2018-09-25T04:43:58.733Z,29.30
2018-09-25T04:44:58.869Z,27.70
2018-09-25T04:45:58.759Z,26.10
2018-09-25T04:46:58.901Z,25.60
2018-09-25T04:47:59.089Z,25.10
2018-09-25T04:48:58.814Z,24.20
2018-09-25T04:49:58.825Z,24.40
2018-09-25T04:50:58.839Z,22.30
2018-09-25T04:51:58.976Z,22.50
2018-09-25T04:52:58.913Z,22.80
2018-09-25T04:53:58.999Z,22.00
2018-09-25T04:54:58.906Z,21.50
2018-09-25T04:55:58.899Z,23.40
2018-09-25T04:56:58.975Z,23.50
2018-09-25T04:57:58.983Z,22.60
2018-09-25T04:58:59.103Z,22.50
2018-09-25T04:59:58.966Z,22.60
2018-09-25T05:00:58.974Z,22.60
2018-09-25T05:01:58.996Z,22.40
2018-09-25T05:02:59.049Z,21.60
2018-09-25T05:03:59.065Z,21.40
2018-09-25T05:04:59.159Z,22.00
2018-09-25T05:05:59.045Z,20.20
2018-09-25T05:06:59.055Z,20.90
2018-09-25T05:07:59.274Z,19.60
2018-09-25T05:08:59.210Z,20.10
2018-09-25T05:09:59.098Z,21.50
2018-09-25T05:10:59.241Z,21.30
2018-09-25T05:11:59.261Z,19.60
2018-09-25T05:12:59.273Z,19.60
2018-09-25T05:13:59.331Z,21.50
2018-09-25T05:14:59.157Z,20.00
2018-09-25T05:15:59.308Z,21.10
2018-09-25T05:16:59.323Z,21.30
2018-09-25T05:17:59.360Z,19.60
2018-09-25T05:18:59.383Z,20.20
2018-09-25T05:19:59.227Z,19.70
2018-09-25T05:20:59.264Z,19.70
2018-09-25T05:21:59.265Z,19.60
2018-09-25T05:22:59.287Z,20.10
2018-09-25T05:23:59.348Z,19.70
2018-09-25T05:24:59.385Z,20.50
2018-09-25T05:25:59.453Z,19.60
2018-09-25T05:26:59.340Z,19.40
2018-09-25T05:27:59.365Z,20.20
2018-09-25T05:28:59.458Z,19.00
2018-09-25T05:29:59.385Z,19.70
2018-09-25T05:30:59.414Z,18.50
2018-09-25T05:31:59.532Z,19.10
2018-09-25T05:32:59.554Z,19.60
2018-09-25T05:33:59.711Z,18.70
2018-09-25T05:34:59.449Z,18.70
2018-09-25T05:35:59.466Z,17.90
2018-09-25T05:36:59.605Z,17.60
2018-09-25T05:37:59.494Z,17.50
2018-09-25T05:38:59.690Z,16.30
2018-09-25T05:39:59.645Z,16.90
2018-09-25T05:40:59.555Z,16.30
2018-09-25T05:41:59.561Z,16.50
2018-09-25T05:42:59.560Z,15.50
2018-09-25T05:43:59.736Z,15.90
2018-09-25T05:44:59.601Z,16.20
2018-09-25T05:45:59.652Z,15.90
2018-09-25T05:46:59.639Z,17.60
2018-09-25T05:47:59.642Z,16.40
2018-09-25T05:48:59.767Z,16.40
2018-09-25T05:49:59.653Z,15.80
2018-09-25T05:50:59.799Z,16.80
2018-09-25T05:51:59.964Z,16.50
2018-09-25T05:52:59.830Z,16.70
2018-09-25T05:53:59.709Z,15.90
2018-09-25T05:54:59.721Z,16.20
2018-09-25T05:55:59.743Z,17.40
2018-09-25T05:56:59.809Z,17.30
2018-09-25T05:57:59.899Z,17.70
2018-09-25T05:58:59.787Z,18.20
2018-09-25T05:59:59.816Z,17.50
2018-09-25T06:00:59.921Z,17.10
2018-09-25T06:01:59.854Z,18.50
2018-09-25T06:02:59.973Z,17.40
2018-09-25T06:03:59.869Z,17.50
2018-09-25T06:05:00.002Z,17.70
2018-09-25T06:05:59.879Z,17.00
2018-09-25T06:07:00.033Z,17.30
2018-09-25T06:07:59.949Z,16.90
2018-09-25T06:08:59.977Z,17.20
2018-09-25T06:09:59.945Z,17.00
2018-09-25T06:10:59.956Z,16.80
2018-09-25T06:12:00.144Z,17.40
2018-09-25T06:13:00.112Z,16.90
2018-09-25T06:14:00.012Z,17.60
2018-09-25T06:15:00.143Z,17.00
2018-09-25T06:16:00.074Z,16.10
2018-09-25T06:17:00.325Z,15.90
2018-09-25T06:18:00.056Z,16.10
2018-09-25T06:19:00.200Z,16.10
2018-09-25T06:20:00.080Z,16.20
2018-09-25T06:21:00.222Z,17.20
2018-09-25T06:22:00.166Z,15.40
2018-09-25T06:23:00.310Z,16.60
2018-09-25T06:24:00.144Z,16.70
2018-09-25T06:25:00.283Z,16.90
2018-09-25T06:26:00.188Z,17.30
2018-09-25T06:27:00.309Z,16.10
2018-09-25T06:28:00.259Z,16.10
2018-09-25T06:29:00.218Z,16.90
2018-09-25T06:30:00.355Z,17.20
2018-09-25T06:31:00.365Z,16.40
2018-09-25T06:32:00.246Z,16.40
2018-09-25T06:33:00.324Z,15.90
2018-09-25T06:34:00.282Z,16.20
2018-09-25T06:35:00.374Z,15.60
2018-09-25T06:36:00.440Z,16.90
2018-09-25T06:37:00.334Z,16.20
2018-09-25T06:38:00.511Z,16.10
2018-09-25T06:39:00.476Z,16.10
2018-09-25T06:40:00.490Z,16.20
2018-09-25T06:41:00.501Z,16.50
2018-09-25T06:42:00.396Z,15.50
2018-09-25T06:43:00.471Z,16.70
2018-09-25T06:44:00.548Z,17.30
2018-09-25T06:45:00.439Z,16.00
2018-09-25T06:46:00.457Z,17.00
2018-09-25T06:47:00.593Z,16.70
2018-09-25T06:48:00.631Z,17.80
2018-09-25T06:49:00.506Z,16.20
2018-09-25T06:50:00.512Z,16.10
2018-09-25T06:51:00.562Z,16.80
2018-09-25T06:52:00.542Z,15.80
2018-09-25T06:53:00.596Z,16.50
2018-09-25T06:54:00.566Z,17.00
2018-09-25T06:55:00.685Z,16.10
2018-09-25T06:56:00.597Z,17.30
2018-09-25T06:57:00.609Z,16.50
2018-09-25T06:58:00.795Z,16.60
2018-09-25T06:59:00.633Z,16.60
2018-09-25T07:00:00.657Z,17.20
2018-09-25T07:01:00.838Z,16.60
2018-09-25T07:02:00.691Z,16.10
2018-09-25T07:03:00.749Z,16.90
2018-09-25T07:04:00.835Z,16.50
2018-09-25T07:05:00.725Z,16.30
2018-09-25T07:06:00.730Z,16.30
2018-09-25T07:07:00.871Z,16.10
2018-09-25T07:08:00.941Z,15.80
2018-09-25T07:09:00.906Z,16.10
2018-09-25T07:10:00.969Z,16.10
2018-09-25T07:11:00.804Z,15.90
2018-09-25T07:12:00.810Z,16.70
2018-09-25T07:13:01.116Z,17.00
2018-09-25T07:14:00.847Z,16.40
2018-09-25T07:15:00.989Z,16.00
2018-09-25T07:16:01.006Z,16.70
2018-09-25T07:17:01.022Z,16.80
2018-09-25T07:18:00.997Z,17.40
2018-09-25T07:19:00.925Z,17.20
2018-09-25T07:20:00.952Z,17.00
2018-09-25T07:21:00.937Z,17.00
2018-09-25T07:22:00.975Z,16.70
2018-09-25T07:23:01.042Z,17.10
2018-09-25T07:24:01.005Z,17.10
2018-09-25T07:25:01.212Z,16.40
2018-09-25T07:26:01.143Z,16.60
2018-09-25T07:27:01.070Z,16.90
2018-09-25T07:28:01.221Z,17.30
2018-09-25T07:29:01.066Z,19.10
2018-09-25T07:30:01.077Z,19.40
2018-09-25T07:31:01.277Z,20.30
2018-09-25T07:32:01.228Z,19.60
2018-09-25T07:33:01.296Z,20.40
2018-09-25T07:34:01.133Z,20.00
2018-09-25T07:35:01.275Z,18.60
2018-09-25T07:36:01.166Z,19.10
2018-09-25T07:37:01.185Z,19.80
2018-09-25T07:38:01.238Z,21.60
2018-09-25T07:39:01.332Z,20.30
2018-09-25T07:40:01.217Z,21.90
2018-09-25T07:41:01.244Z,22.00
2018-09-25T07:42:01.248Z,22.00
2018-09-25T07:43:01.533Z,22.50
2018-09-25T07:44:01.403Z,22.60
2018-09-25T07:45:01.293Z,22.20
2018-09-25T07:46:01.427Z,21.40
2018-09-25T07:47:01.441Z,21.10
2018-09-25T07:48:01.432Z,22.20
2018-09-25T07:49:01.344Z,21.40
2018-09-25T07:50:01.483Z,23.60
2018-09-25T07:51:01.374Z,22.20
2018-09-25T07:52:01.513Z,22.30
2018-09-25T07:53:01.451Z,23.00
2018-09-25T07:54:01.541Z,24.20
2018-09-25T07:55:01.433Z,24.50
2018-09-25T07:56:01.442Z,24.20
2018-09-25T07:57:01.460Z,26.10
2018-09-25T07:58:01.646Z,25.00
2018-09-25T07:59:01.483Z,25.20
2018-09-25T08:00:01.499Z,26.40
2018-09-25T08:01:01.521Z,25.90
2018-09-25T08:02:01.654Z,25.20
2018-09-25T08:03:01.683Z,25.90
2018-09-25T08:04:01.679Z,24.80
2018-09-25T08:05:01.572Z,26.60
2018-09-25T08:06:01.590Z,27.30
2018-09-25T08:07:01.719Z,27.60
2018-09-25T08:08:01.785Z,26.30
2018-09-25T08:09:01.658Z,28.80
2018-09-25T08:10:01.656Z,30.80
2018-09-25T08:11:01.667Z,35.00
2018-09-25T08:12:01.661Z,32.40
2018-09-25T08:13:01.720Z,35.20
2018-09-25T08:14:01.818Z,34.90
2018-09-25T08:15:01.834Z,37.60
2018-09-25T08:16:01.857Z,35.50
2018-09-25T08:17:01.860Z,37.10
2018-09-25T08:18:01.950Z,37.00
2018-09-25T08:19:01.771Z,37.40
2018-09-25T08:20:01.788Z,39.60
2018-09-25T08:21:01.794Z,39.60
2018-09-25T08:22:01.933Z,38.50
2018-09-25T08:23:01.974Z,39.60
2018-09-25T08:24:01.876Z,41.00
2018-09-25T08:25:01.975Z,42.90
2018-09-25T08:26:01.987Z,41.10
2018-09-25T08:27:02.006Z,43.40
2018-09-25T08:28:02.172Z,42.40
2018-09-25T08:29:01.962Z,44.20
2018-09-25T08:30:01.930Z,42.40
2018-09-25T08:31:01.935Z,45.30
2018-09-25T08:32:02.103Z,46.90
2018-09-25T08:33:02.020Z,46.30
2018-09-25T08:34:01.987Z,47.40
2018-09-25T08:35:02.035Z,48.80
2018-09-25T08:36:02.140Z,48.20
2018-09-25T08:37:02.152Z,50.00
2018-09-25T08:38:02.038Z,51.20
2018-09-25T08:39:02.208Z,51.00
2018-09-25T08:40:02.135Z,50.80
2018-09-25T08:41:02.081Z,48.00
2018-09-25T08:42:02.095Z,49.10
2018-09-25T08:43:02.107Z,48.50
2018-09-25T08:44:02.125Z,47.50
2018-09-25T08:45:02.317Z,46.20
2018-09-25T08:46:02.279Z,46.10
2018-09-25T08:47:02.183Z,49.50
2018-09-25T08:48:02.300Z,47.90
2018-09-25T08:49:02.316Z,48.50
2018-09-25T08:50:02.365Z,49.50
2018-09-25T08:51:02.351Z,48.90
2018-09-25T08:52:02.232Z,49.30
2018-09-25T08:53:02.376Z,49.50
2018-09-25T08:54:02.265Z,50.30
2018-09-25T08:55:02.274Z,45.40
2018-09-25T08:56:02.290Z,43.10
2018-09-25T08:57:02.458Z,45.20
2018-09-25T08:58:02.441Z,46.20
2018-09-25T08:59:02.344Z,43.30
2018-09-25T09:00:02.471Z,42.80
2018-09-25T09:01:02.525Z,42.20
2018-09-25T09:02:02.374Z,38.00
2018-09-25T09:03:02.394Z,37.50
2018-09-25T09:04:02.555Z,34.50
2018-09-25T09:05:02.426Z,33.80
2018-09-25T09:06:02.552Z,34.70
2018-09-25T09:07:02.573Z,33.60
2018-09-25T09:08:02.446Z,31.90
2018-09-25T09:09:02.634Z,32.60
2018-09-25T09:10:02.487Z,31.50
2018-09-25T09:11:02.516Z,31.80
2018-09-25T09:12:02.525Z,32.30
2018-09-25T09:13:02.572Z,34.80
2018-09-25T09:14:02.824Z,34.10
2018-09-25T09:15:02.577Z,34.60
2018-09-25T09:16:02.593Z,34.40
2018-09-25T09:17:02.708Z,34.60
2018-09-25T09:18:02.602Z,35.90
2018-09-25T09:19:02.617Z,36.60
2018-09-25T09:20:02.708Z,35.50
2018-09-25T09:21:02.644Z,36.90
2018-09-25T09:22:02.669Z,36.00
2018-09-25T09:23:02.826Z,35.20
2018-09-25T09:24:02.692Z,34.70
2018-09-25T09:25:02.886Z,34.30
2018-09-25T09:26:02.720Z,33.90
2018-09-25T09:27:02.727Z,34.60
2018-09-25T09:28:02.793Z,34.50
2018-09-25T09:29:02.891Z,34.00
2018-09-25T09:30:02.778Z,34.60
2018-09-25T09:31:02.918Z,33.90
2018-09-25T09:32:02.926Z,34.40
2018-09-25T09:33:02.882Z,34.60
2018-09-25T09:34:02.868Z,34.00
2018-09-25T09:35:02.867Z,34.00
2018-09-25T09:36:02.863Z,32.60
2018-09-25T09:37:03.005Z,34.60
2018-09-25T09:38:02.952Z,33.40
2018-09-25T09:39:03.030Z,32.90
2018-09-25T09:40:02.921Z,33.30
2018-09-25T09:41:03.025Z,32.50
2018-09-25T09:42:03.373Z,31.90
2018-09-25T09:43:03.240Z,32.60
2018-09-25T09:44:02.977Z,33.30
2018-09-25T09:45:03.001Z,33.50
2018-09-25T09:46:03.140Z,32.50
2018-09-25T09:47:03.153Z,31.30
2018-09-25T09:48:03.094Z,32.60
2018-09-25T09:49:03.061Z,29.40
2018-09-25T09:50:03.076Z,30.10
2018-09-25T09:51:03.095Z,29.00
2018-09-25T09:52:03.093Z,29.50
2018-09-25T09:53:03.240Z,29.70
2018-09-25T09:54:03.139Z,29.90
2018-09-25T09:55:03.153Z,29.60
2018-09-25T09:56:03.166Z,29.50
2018-09-25T09:57:03.182Z,29.40
2018-09-25T09:58:03.370Z,26.70
2018-09-25T09:59:03.336Z,24.90
2018-09-25T10:00:03.350Z,25.40
2018-09-25T10:01:03.366Z,24.70
2018-09-25T10:02:03.247Z,24.40
2018-09-25T10:03:03.414Z,23.50
2018-09-25T10:04:03.291Z,23.80
2018-09-25T10:05:03.306Z,25.30
2018-09-25T10:06:03.445Z,25.00
2018-09-25T10:07:03.478Z,23.80
2018-09-25T10:08:03.628Z,24.30
2018-09-25T10:09:03.373Z,23.80
2018-09-25T10:10:03.519Z,23.20
2018-09-25T10:11:03.407Z,23.20
2018-09-25T10:12:03.436Z,23.50
2018-09-25T10:13:03.601Z,22.80
2018-09-25T10:14:03.466Z,21.80
2018-09-25T10:15:03.474Z,23.40
2018-09-25T10:16:03.614Z,22.20
2018-09-25T10:17:03.517Z,21.70
2018-09-25T10:18:03.623Z,21.30
2018-09-25T10:19:03.549Z,20.70
2018-09-25T10:20:03.575Z,21.00
2018-09-25T10:21:03.581Z,19.60
2018-09-25T10:22:03.600Z,19.90
2018-09-25T10:23:03.763Z,20.30
2018-09-25T10:24:03.678Z,19.40
2018-09-25T10:25:03.784Z,19.10
2018-09-25T10:26:03.665Z,20.80
2018-09-25T10:27:03.694Z,20.40
2018-09-25T10:28:03.986Z,19.80
2018-09-25T10:29:03.737Z,19.60
2018-09-25T10:30:03.758Z,19.30
2018-09-25T10:31:03.764Z,17.40
2018-09-25T10:32:03.794Z,18.30
2018-09-25T10:33:03.966Z,19.30
2018-09-25T10:34:03.885Z,17.90
2018-09-25T10:35:03.883Z,18.10
2018-09-25T10:36:03.862Z,19.60
2018-09-25T10:37:03.886Z,19.80
2018-09-25T10:38:04.067Z,19.50
2018-09-25T10:39:04.051Z,20.20
2018-09-25T10:40:04.067Z,19.90
2018-09-25T10:41:04.156Z,20.90
2018-09-25T10:42:03.980Z,20.60
2018-09-25T10:43:04.150Z,20.70
2018-09-25T10:44:04.042Z,20.00
2018-09-25T10:45:04.057Z,20.40
2018-09-25T10:46:04.072Z,22.00
2018-09-25T10:47:04.079Z,20.30
2018-09-25T10:48:04.112Z,19.70
2018-09-25T10:49:04.129Z,20.70
2018-09-25T10:50:04.178Z,20.80
2018-09-25T10:51:04.328Z,20.40
2018-09-25T10:52:04.165Z,20.40
2018-09-25T10:53:04.311Z,20.70
2018-09-25T10:54:04.205Z,20.30
2018-09-25T10:55:04.345Z,19.60
2018-09-25T10:56:04.435Z,20.60
2018-09-25T10:57:04.260Z,19.50
2018-09-25T10:58:04.401Z,18.90
2018-09-25T10:59:04.305Z,18.70
2018-09-25T11:00:04.438Z,19.40
2018-09-25T11:01:04.332Z,19.30
2018-09-25T11:02:04.478Z,20.20
2018-09-25T11:03:04.409Z,19.80
2018-09-25T11:04:04.444Z,20.20
2018-09-25T11:05:04.532Z,20.20
2018-09-25T11:06:04.550Z,19.50
2018-09-25T11:07:04.569Z,18.90
2018-09-25T11:08:04.463Z,20.80
2018-09-25T11:09:04.636Z,20.30
2018-09-25T11:10:04.583Z,19.20
2018-09-25T11:11:04.640Z,19.80
2018-09-25T11:12:04.542Z,19.50
2018-09-25T11:13:04.678Z,20.10
2018-09-25T11:14:04.715Z,20.60
2018-09-25T11:15:04.717Z,20.80
2018-09-25T11:16:04.737Z,22.60
2018-09-25T11:17:04.625Z,20.50
2018-09-25T11:18:04.660Z,21.60
2018-09-25T11:19:04.805Z,21.40
2018-09-25T11:20:04.680Z,20.70
2018-09-25T11:21:04.722Z,19.70
2018-09-25T11:22:04.731Z,20.20
2018-09-25T11:23:04.735Z,20.90
2018-09-25T11:24:04.887Z,21.10
2018-09-25T11:25:04.776Z,19.80
2018-09-25T11:26:04.951Z,22.70
2018-09-25T11:27:04.815Z,20.80
2018-09-25T11:28:04.853Z,19.70
2018-09-25T11:29:04.880Z,21.00
2018-09-25T11:30:04.889Z,20.20
2018-09-25T11:31:05.032Z,21.80
2018-09-25T11:32:04.923Z,20.60
2018-09-25T11:33:04.941Z,22.70
2018-09-25T11:34:05.089Z,21.30
2018-09-25T11:35:05.166Z,21.20
2018-09-25T11:36:05.024Z,22.60
2018-09-25T11:37:05.026Z,22.60
2018-09-25T11:38:05.051Z,21.30
2018-09-25T11:39:05.081Z,22.50
2018-09-25T11:40:05.246Z,23.60
2018-09-25T11:41:05.310Z,23.00
2018-09-25T11:42:05.247Z,23.80
2018-09-25T11:43:05.265Z,22.70
2018-09-25T11:44:05.287Z,22.70
2018-09-25T11:45:05.191Z,23.00
2018-09-25T11:46:05.297Z,22.80
2018-09-25T11:47:05.460Z,24.30
2018-09-25T11:48:05.246Z,25.40
2018-09-25T11:49:05.390Z,23.90
2018-09-25T11:50:05.293Z,25.60
2018-09-25T11:51:05.429Z,25.10
2018-09-25T11:52:05.427Z,24.50
2018-09-25T11:53:05.478Z,23.80
2018-09-25T11:54:05.494Z,24.20
2018-09-25T11:55:05.396Z,25.70
2018-09-25T11:56:05.420Z,24.50
2018-09-25T11:57:05.653Z,24.70
2018-09-25T11:58:05.451Z,25.10
2018-09-25T11:59:05.488Z,26.00
2018-09-25T12:00:05.516Z,25.40
2018-09-25T12:01:05.640Z,26.00
2018-09-25T12:02:05.736Z,24.00
2018-09-25T12:03:05.547Z,23.80
2018-09-25T12:04:05.709Z,24.00
2018-09-25T12:05:05.723Z,22.30
2018-09-25T12:06:05.610Z,20.80
2018-09-25T12:07:05.658Z,21.10
2018-09-25T12:08:05.657Z,21.60
2018-09-25T12:09:05.852Z,21.60
2018-09-25T12:10:05.716Z,22.30
2018-09-25T12:11:05.851Z,23.10
2018-09-25T12:12:05.747Z,23.40
2018-09-25T12:13:05.764Z,23.10
2018-09-25T12:14:05.834Z,22.10
2018-09-25T12:15:05.931Z,23.10
2018-09-25T12:16:05.950Z,21.50
2018-09-25T12:17:05.849Z,20.90
2018-09-25T12:18:05.865Z,21.90
2018-09-25T12:19:06.085Z,23.50
2018-09-25T12:20:05.908Z,27.30
2018-09-25T12:21:05.951Z,27.30
2018-09-25T12:22:05.959Z,25.30
2018-09-25T12:23:05.981Z,25.80
2018-09-25T12:24:06.098Z,25.20
2018-09-25T12:25:06.010Z,25.90
2018-09-25T12:26:06.034Z,24.00
2018-09-25T12:27:06.179Z,23.50
2018-09-25T12:28:06.084Z,22.50
2018-09-25T12:29:06.377Z,23.40
2018-09-25T12:30:06.124Z,22.90
2018-09-25T12:31:06.147Z,21.20
2018-09-25T12:32:06.192Z,21.00
2018-09-25T12:33:06.320Z,20.10
2018-09-25T12:34:06.373Z,19.10
2018-09-25T12:35:06.354Z,19.30
2018-09-25T12:36:06.384Z,18.70
2018-09-25T12:37:06.284Z,18.20
2018-09-25T12:38:06.307Z,19.30
2018-09-25T12:39:06.438Z,19.80
2018-09-25T12:40:06.342Z,19.70
2018-09-25T12:41:06.422Z,22.10
2018-09-25T12:42:06.384Z,27.00
2018-09-25T12:43:06.411Z,29.70
2018-09-25T12:44:06.708Z,30.70
2018-09-25T12:45:06.453Z,31.10
2018-09-25T12:46:06.498Z,32.80
2018-09-25T12:47:06.500Z,36.20
2018-09-25T12:48:06.538Z,37.10
2018-09-25T12:49:06.603Z,36.60
2018-09-25T12:50:06.562Z,37.10
2018-09-25T12:51:06.581Z,40.10
2018-09-25T12:52:06.757Z,40.20
2018-09-25T12:53:06.630Z,39.10
2018-09-25T12:54:06.643Z,38.50